createdAt,value
2023-05-08T00:01:08.216Z,14.37
2023-05-08T00:03:35.042Z,14.38
2023-05-08T00:06:05.721Z,14.23
2023-05-08T00:08:32.773Z,14.24
2023-05-08T00:10:59.234Z,14.27
2023-05-08T00:13:25.848Z,14.30
2023-05-08T00:15:52.508Z,14.32
2023-05-08T00:18:18.993Z,14.26
2023-05-08T00:20:45.480Z,14.12
2023-05-08T00:23:11.937Z,14.07
2023-05-08T00:25:38.855Z,14.01
2023-05-08T00:28:05.370Z,13.98
2023-05-08T00:30:31.839Z,14.05
2023-05-08T00:32:58.351Z,14.03
2023-05-08T00:35:24.879Z,13.94
2023-05-08T00:37:51.411Z,13.77
2023-05-08T00:40:17.931Z,13.74
2023-05-08T00:42:44.379Z,13.77
2023-05-08T00:45:11.257Z,13.87
2023-05-08T00:47:38.696Z,13.85
2023-05-08T00:50:06.016Z,13.85
2023-05-08T00:52:33.880Z,13.86
2023-05-08T00:55:08.088Z,13.86
2023-05-08T00:57:36.039Z,13.94
2023-05-08T01:00:05.393Z,13.99
2023-05-08T01:02:32.761Z,13.94
2023-05-08T01:05:00.110Z,13.92
2023-05-08T01:07:27.795Z,13.94
2023-05-08T01:09:54.318Z,13.93
2023-05-08T01:12:36.165Z,13.88
2023-05-08T01:15:17.258Z,13.85
2023-05-08T01:18:15.751Z,13.79
2023-05-08T01:21:03.876Z,13.86
2023-05-08T01:24:16.987Z,13.73
2023-05-08T01:27:17.499Z,13.84
2023-05-08T01:30:19.352Z,13.80
2023-05-08T01:33:01.656Z,13.74
2023-05-08T01:35:49.726Z,13.85
2023-05-08T01:38:48.432Z,13.75
2023-05-08T01:41:29.975Z,13.77
2023-05-08T01:44:34.484Z,13.71
2023-05-08T01:47:09.658Z,13.69
2023-05-08T01:49:46.056Z,13.64
2023-05-08T01:52:34.415Z,13.51
2023-05-08T01:55:17.695Z,13.59
2023-05-08T01:57:51.661Z,13.58
2023-05-08T02:00:23.672Z,13.67
2023-05-08T02:02:52.404Z,13.65
2023-05-08T02:05:22.446Z,13.61
2023-05-08T02:07:51.679Z,13.71
2023-05-08T02:10:22.368Z,13.67
2023-05-08T02:12:50.296Z,13.55
2023-05-08T02:15:25.204Z,13.61
2023-05-08T02:17:57.544Z,13.46
2023-05-08T02:20:33.306Z,13.45
2023-05-08T02:23:02.098Z,13.52
2023-05-08T02:25:31.020Z,13.56
2023-05-08T02:27:58.989Z,13.56
2023-05-08T02:30:28.666Z,13.54
2023-05-08T02:33:00.628Z,13.54
2023-05-08T02:35:30.808Z,13.54
2023-05-08T02:37:58.564Z,13.57
2023-05-08T02:40:32.455Z,13.50
2023-05-08T02:42:59.246Z,13.56
2023-05-08T02:45:36.857Z,13.39
2023-05-08T02:48:26.271Z,13.24
2023-05-08T02:51:21.763Z,13.21
2023-05-08T02:54:10.064Z,13.18
2023-05-08T02:56:43.979Z,13.26
2023-05-08T02:59:20.366Z,13.28
2023-05-08T03:01:58.932Z,13.33
2023-05-08T03:04:37.695Z,13.22
2023-05-08T03:07:06.247Z,13.39
2023-05-08T03:09:44.429Z,13.34
2023-05-08T03:12:20.558Z,13.29
2023-05-08T03:15:00.191Z,13.32
2023-05-08T03:17:32.415Z,13.30
2023-05-08T03:20:08.047Z,13.32
2023-05-08T03:22:38.163Z,13.28
2023-05-08T03:25:11.234Z,13.31
2023-05-08T03:27:40.592Z,13.21
2023-05-08T03:30:09.676Z,13.22
2023-05-08T03:32:37.704Z,13.30
2023-05-08T03:35:06.924Z,13.25
2023-05-08T03:37:33.597Z,13.28
2023-05-08T03:40:00.239Z,13.22
2023-05-08T03:42:27.592Z,13.26
2023-05-08T03:44:57.648Z,13.21
2023-05-08T03:47:31.093Z,13.21
2023-05-08T03:49:58.825Z,13.32
2023-05-08T03:52:25.984Z,13.31
2023-05-08T03:54:52.560Z,13.37
2023-05-08T03:57:19.199Z,13.33
2023-05-08T04:00:06.406Z,13.21
2023-05-08T04:02:42.958Z,13.14
2023-05-08T04:05:37.561Z,12.63
2023-05-08T04:08:19.733Z,12.94
2023-05-08T04:11:30.109Z,12.95
2023-05-08T04:14:06.953Z,13.02
2023-05-08T04:16:43.665Z,12.98
2023-05-08T04:19:22.963Z,12.94
2023-05-08T04:21:51.536Z,13.09
2023-05-08T04:24:29.004Z,13.02
2023-05-08T04:27:00.346Z,13.13
2023-05-08T04:29:27.268Z,13.17
2023-05-08T04:31:55.798Z,13.24
2023-05-08T04:34:28.988Z,13.22
2023-05-08T04:36:55.607Z,13.13
2023-05-08T04:39:25.206Z,13.18
2023-05-08T04:41:52.638Z,13.06
2023-05-08T04:44:20.404Z,13.08
2023-05-08T04:46:46.901Z,13.13
2023-05-08T04:49:13.439Z,13.16
2023-05-08T04:51:39.900Z,13.16
2023-05-08T04:54:06.333Z,13.24
2023-05-08T04:56:32.780Z,13.18
2023-05-08T04:58:59.300Z,13.22
2023-05-08T05:01:25.942Z,13.34
2023-05-08T05:03:52.680Z,13.29
2023-05-08T05:06:19.259Z,13.42
2023-05-08T05:08:45.842Z,13.43
2023-05-08T05:11:12.340Z,13.45
2023-05-08T05:13:38.848Z,13.47
2023-05-08T05:16:05.795Z,13.45
2023-05-08T05:18:32.330Z,13.39
2023-05-08T05:20:59.213Z,13.29
2023-05-08T05:23:25.716Z,13.30
2023-05-08T05:25:52.238Z,13.37
2023-05-08T05:28:18.748Z,13.38
2023-05-08T05:30:48.392Z,13.08
2023-05-08T05:33:15.163Z,13.11
2023-05-08T05:35:41.648Z,13.10
2023-05-08T05:38:08.104Z,13.18
2023-05-08T05:40:34.658Z,13.28
2023-05-08T05:43:01.126Z,13.30
2023-05-08T05:45:27.621Z,13.38
2023-05-08T05:47:54.374Z,13.38
2023-05-08T05:50:22.474Z,13.45
2023-05-08T05:52:49.187Z,13.46
2023-05-08T05:55:16.236Z,13.37
2023-05-08T05:57:42.855Z,13.38
2023-05-08T06:00:11.258Z,13.44
2023-05-08T06:02:38.195Z,13.51
2023-05-08T06:05:05.246Z,13.51
2023-05-08T06:07:31.773Z,13.55
2023-05-08T06:09:58.263Z,13.62
2023-05-08T06:12:25.425Z,13.67
2023-05-08T06:14:52.616Z,13.71
2023-05-08T06:17:19.176Z,13.72
2023-05-08T06:19:54.029Z,13.75
2023-05-08T06:22:24.091Z,13.78
2023-05-08T06:24:54.916Z,13.81
2023-05-08T06:27:22.507Z,13.69
2023-05-08T06:29:52.891Z,13.83
2023-05-08T06:32:20.617Z,13.70
2023-05-08T06:34:47.567Z,13.69
2023-05-08T06:37:14.244Z,13.73
2023-05-08T06:39:40.881Z,13.55
2023-05-08T06:42:08.119Z,13.81
2023-05-08T06:44:35.831Z,13.99
2023-05-08T06:47:02.739Z,14.02
2023-05-08T06:49:29.513Z,14.11
2023-05-08T06:51:57.987Z,13.88
2023-05-08T06:54:24.857Z,13.79
2023-05-08T06:56:54.224Z,13.77
2023-05-08T06:59:23.205Z,13.80
2023-05-08T07:01:50.568Z,13.86
2023-05-08T07:04:17.347Z,13.79
2023-05-08T07:06:43.909Z,13.84
2023-05-08T07:09:12.144Z,14.00
2023-05-08T07:11:38.740Z,14.08
2023-05-08T07:14:05.299Z,14.10
2023-05-08T07:16:32.076Z,14.12
2023-05-08T07:18:58.755Z,14.13
2023-05-08T07:21:25.332Z,14.07
2023-05-08T07:23:53.698Z,14.14
2023-05-08T07:26:21.448Z,14.05
2023-05-08T07:28:48.725Z,14.00
2023-05-08T07:31:15.426Z,14.11
2023-05-08T07:33:42.244Z,14.01
2023-05-08T07:36:08.859Z,14.01
2023-05-08T07:38:36.572Z,14.10
2023-05-08T07:41:05.108Z,14.05
2023-05-08T07:43:32.063Z,14.06
2023-05-08T07:45:59.143Z,14.15
2023-05-08T07:48:25.895Z,14.21
2023-05-08T07:50:52.398Z,14.29
2023-05-08T07:53:18.915Z,14.34
2023-05-08T07:55:45.446Z,14.42
2023-05-08T07:58:12.020Z,14.33
2023-05-08T08:00:39.623Z,14.26
2023-05-08T08:03:07.072Z,14.23
2023-05-08T08:05:33.691Z,14.30
2023-05-08T08:08:00.355Z,14.35
2023-05-08T08:10:27.140Z,14.26
2023-05-08T08:12:53.938Z,14.24
2023-05-08T08:15:20.708Z,14.29
2023-05-08T08:17:47.286Z,14.38
2023-05-08T08:20:14.370Z,14.42
2023-05-08T08:22:41.076Z,14.42
2023-05-08T08:25:08.348Z,14.32
2023-05-08T08:27:34.807Z,14.30
2023-05-08T08:30:12.782Z,14.38
2023-05-08T08:32:43.222Z,14.29
2023-05-08T08:35:10.068Z,14.38
2023-05-08T08:37:36.598Z,14.41
2023-05-08T08:40:03.822Z,14.54
2023-05-08T08:42:31.602Z,14.68
2023-05-08T08:44:58.331Z,14.82
2023-05-08T08:47:29.791Z,14.88
2023-05-08T08:50:03.165Z,14.88
2023-05-08T08:52:54.536Z,14.93
2023-05-08T08:55:23.399Z,15.05
2023-05-08T08:58:33.292Z,14.99
2023-05-08T09:01:00.924Z,15.15
2023-05-08T09:03:27.784Z,15.22
2023-05-08T09:05:55.192Z,15.24
2023-05-08T09:08:21.666Z,15.30
2023-05-08T09:10:48.398Z,15.29
2023-05-08T09:13:15.555Z,15.34
2023-05-08T09:15:43.151Z,15.48
2023-05-08T09:18:09.739Z,15.59
2023-05-08T09:20:36.780Z,15.65
2023-05-08T09:23:03.532Z,15.72
2023-05-08T09:25:44.632Z,15.62
2023-05-08T09:28:25.625Z,15.61
2023-05-08T09:31:02.440Z,15.63
2023-05-08T09:33:29.922Z,15.69
2023-05-08T09:35:57.537Z,15.76
2023-05-08T09:38:41.913Z,15.82
2023-05-08T09:41:15.271Z,15.88
2023-05-08T09:43:44.113Z,16.00
2023-05-08T09:46:21.088Z,15.79
2023-05-08T09:48:48.904Z,15.68
2023-05-08T09:51:15.646Z,15.68
2023-05-08T09:53:42.213Z,15.76
2023-05-08T09:56:08.681Z,15.83
2023-05-08T09:58:44.460Z,15.81
2023-05-08T10:01:36.632Z,15.79
2023-05-08T10:04:04.129Z,15.95
2023-05-08T10:06:30.772Z,16.01
2023-05-08T10:09:14.865Z,15.96
2023-05-08T10:11:52.738Z,16.13
2023-05-08T10:14:20.860Z,16.31
2023-05-08T10:16:51.764Z,16.56
2023-05-08T10:19:22.194Z,16.66
2023-05-08T10:21:53.915Z,16.66
2023-05-08T10:24:32.697Z,16.74
2023-05-08T10:27:20.404Z,16.79
2023-05-08T10:29:56.109Z,16.89
2023-05-08T10:32:24.590Z,16.99
2023-05-08T10:34:59.878Z,17.14
2023-05-08T10:37:30.217Z,17.14
2023-05-08T10:39:58.744Z,17.19
2023-05-08T10:42:27.602Z,17.24
2023-05-08T10:44:54.924Z,17.27
2023-05-08T10:47:51.208Z,17.31
2023-05-08T10:51:14.144Z,17.36
2023-05-08T10:53:52.335Z,17.54
2023-05-08T10:56:27.251Z,17.71
2023-05-08T10:58:58.702Z,17.79
2023-05-08T11:01:26.826Z,17.75
2023-05-08T11:03:55.924Z,17.93
2023-05-08T11:06:43.956Z,17.68
2023-05-08T11:09:20.013Z,17.91
2023-05-08T11:12:28.566Z,17.99
2023-05-08T11:15:06.899Z,18.13
2023-05-08T11:17:34.387Z,18.21
2023-05-08T11:20:06.849Z,18.24
2023-05-08T11:22:35.199Z,18.43
2023-05-08T11:25:08.632Z,18.41
2023-05-08T11:27:39.378Z,18.57
2023-05-08T11:30:34.637Z,18.63
2023-05-08T11:33:04.542Z,18.82
2023-05-08T11:35:43.935Z,18.81
2023-05-08T11:38:29.547Z,18.89
2023-05-08T11:41:11.176Z,19.01
2023-05-08T11:44:02.665Z,19.24
2023-05-08T11:46:49.899Z,19.32
2023-05-08T11:49:19.653Z,19.49
2023-05-08T11:51:58.021Z,19.57
2023-05-08T11:54:30.747Z,19.68
2023-05-08T11:56:57.719Z,19.69
2023-05-08T11:59:24.307Z,19.70
2023-05-08T12:04:22.077Z,19.73
2023-05-08T12:06:51.244Z,19.79
2023-05-08T12:09:18.982Z,19.79
2023-05-08T12:11:45.526Z,19.59
2023-05-08T12:14:14.942Z,19.66
2023-05-08T12:16:43.935Z,19.83
2023-05-08T12:19:13.052Z,20.11
2023-05-08T12:21:47.594Z,20.14
2023-05-08T12:24:16.331Z,20.25
2023-05-08T12:26:42.866Z,20.23
2023-05-08T12:29:09.433Z,20.22
2023-05-08T12:31:36.654Z,20.30
2023-05-08T12:34:05.864Z,20.42
2023-05-08T12:36:36.340Z,20.43
2023-05-08T12:39:11.259Z,20.58
2023-05-08T12:41:48.661Z,20.78
2023-05-08T12:44:26.285Z,20.79
2023-05-08T12:46:56.147Z,20.82
2023-05-08T12:49:28.936Z,20.80
2023-05-08T12:52:23.487Z,20.78
2023-05-08T12:54:49.995Z,20.88
2023-05-08T12:57:19.696Z,20.89
2023-05-08T12:59:46.822Z,20.81
2023-05-08T13:02:23.701Z,20.78
2023-05-08T13:04:58.270Z,20.98
2023-05-08T13:07:24.890Z,21.19
2023-05-08T13:10:04.336Z,21.11
2023-05-08T13:12:31.623Z,21.09
2023-05-08T13:14:58.092Z,21.17
2023-05-08T13:17:24.569Z,21.22
2023-05-08T13:19:51.108Z,21.31
2023-05-08T13:22:17.606Z,21.39
2023-05-08T13:24:44.093Z,21.56
2023-05-08T13:27:10.604Z,21.52
2023-05-08T13:29:37.099Z,21.38
2023-05-08T13:32:03.716Z,21.31
2023-05-08T13:34:30.250Z,21.29
2023-05-08T13:36:56.976Z,21.10
2023-05-08T13:39:23.440Z,21.31
2023-05-08T13:41:49.879Z,21.47
2023-05-08T13:44:16.368Z,21.58
2023-05-08T13:46:42.830Z,21.53
2023-05-08T13:49:09.320Z,21.61
2023-05-08T13:51:35.780Z,21.70
2023-05-08T13:54:02.286Z,21.61
2023-05-08T13:56:28.831Z,21.60
2023-05-08T13:58:55.297Z,21.60
2023-05-08T14:01:26.505Z,21.58
2023-05-08T14:03:55.164Z,21.63
2023-05-08T14:06:21.873Z,21.60
2023-05-08T14:08:50.937Z,21.57
2023-05-08T14:11:18.752Z,21.52
2023-05-08T14:13:45.195Z,21.65
2023-05-08T14:16:14.194Z,21.79
2023-05-08T14:18:40.903Z,21.69
2023-05-08T14:21:07.422Z,21.50
2023-05-08T14:23:35.460Z,21.45
2023-05-08T14:26:01.920Z,21.51
2023-05-08T14:28:29.396Z,21.39
2023-05-08T14:30:56.117Z,21.44
2023-05-08T14:33:22.724Z,21.52
2023-05-08T14:35:49.170Z,21.43
2023-05-08T14:38:15.757Z,21.33
2023-05-08T14:40:42.210Z,21.39
2023-05-08T14:43:08.726Z,21.43
2023-05-08T14:45:35.783Z,21.32
2023-05-08T14:48:02.286Z,21.22
2023-05-08T14:50:28.845Z,21.42
2023-05-08T14:52:55.544Z,21.44
2023-05-08T14:55:22.546Z,21.44
2023-05-08T14:57:49.978Z,21.24
2023-05-08T15:00:17.872Z,21.07
2023-05-08T15:02:45.180Z,21.25
2023-05-08T15:05:19.143Z,21.26
2023-05-08T15:07:47.130Z,21.27
2023-05-08T15:10:13.744Z,21.32
2023-05-08T15:12:40.234Z,21.33
2023-05-08T15:15:07.385Z,21.31
2023-05-08T15:17:36.819Z,21.38
2023-05-08T15:20:04.267Z,21.38
2023-05-08T15:22:31.250Z,21.46
2023-05-08T15:25:02.685Z,21.46
2023-05-08T15:27:30.227Z,21.43
2023-05-08T15:29:57.197Z,21.56
2023-05-08T15:32:24.471Z,21.38
2023-05-08T15:34:51.148Z,21.29
2023-05-08T15:37:17.674Z,21.02
2023-05-08T15:39:44.262Z,21.10
2023-05-08T15:42:10.824Z,21.21
2023-05-08T15:44:54.191Z,21.10
2023-05-08T15:47:23.096Z,21.05
2023-05-08T15:49:54.004Z,20.80
2023-05-08T15:52:21.009Z,20.84
2023-05-08T15:54:48.427Z,20.83
2023-05-08T15:57:15.227Z,20.71
2023-05-08T15:59:42.023Z,20.52
2023-05-08T16:02:09.269Z,20.50
2023-05-08T16:04:36.620Z,20.44
2023-05-08T16:07:03.178Z,20.58
2023-05-08T16:09:29.686Z,20.61
2023-05-08T16:11:56.264Z,20.39
2023-05-08T16:14:22.736Z,20.07
2023-05-08T16:16:49.214Z,19.90
2023-05-08T16:19:16.252Z,19.95
2023-05-08T16:21:46.996Z,19.99
2023-05-08T16:24:14.234Z,20.04
2023-05-08T16:26:40.753Z,20.13
2023-05-08T16:29:07.304Z,20.22
2023-05-08T16:31:34.027Z,20.27
2023-05-08T16:34:00.681Z,20.33
2023-05-08T16:36:27.604Z,20.25
2023-05-08T16:38:54.175Z,20.06
2023-05-08T16:41:21.394Z,20.19
2023-05-08T16:43:47.928Z,20.21
2023-05-08T16:46:14.480Z,20.21
2023-05-08T16:48:42.181Z,20.17
2023-05-08T16:51:08.666Z,20.13
2023-05-08T16:53:35.102Z,20.11
2023-05-08T16:56:01.598Z,20.07
2023-05-08T16:58:28.107Z,19.91
2023-05-08T17:00:54.801Z,19.88
2023-05-08T17:03:21.395Z,19.78
2023-05-08T17:05:47.912Z,19.76
2023-05-08T17:08:14.508Z,19.72
2023-05-08T17:10:41.362Z,19.73
2023-05-08T17:13:07.909Z,19.71
2023-05-08T17:15:34.433Z,19.66
2023-05-08T17:18:00.982Z,19.64
2023-05-08T17:20:27.616Z,19.69
2023-05-08T17:22:54.203Z,19.77
2023-05-08T17:25:22.344Z,19.72
2023-05-08T17:27:48.984Z,19.66
2023-05-08T17:30:16.907Z,19.62
2023-05-08T17:32:43.677Z,19.60
2023-05-08T17:35:10.316Z,19.45
2023-05-08T17:37:36.948Z,19.37
2023-05-08T17:40:03.843Z,19.34
2023-05-08T17:42:30.415Z,19.32
2023-05-08T17:44:57.092Z,19.21
2023-05-08T17:47:23.745Z,19.09
2023-05-08T17:49:50.569Z,18.96
2023-05-08T17:52:17.076Z,18.90
2023-05-08T17:54:43.567Z,18.73
2023-05-08T17:57:10.028Z,18.60
2023-05-08T17:59:36.525Z,18.39
2023-05-08T18:02:03.094Z,18.39
2023-05-08T18:04:29.594Z,18.32
2023-05-08T18:06:56.131Z,18.21
2023-05-08T18:09:22.631Z,18.10
2023-05-08T18:11:49.072Z,18.05
2023-05-08T18:14:15.627Z,17.93
2023-05-08T18:16:42.124Z,17.78
2023-05-08T18:19:08.838Z,17.65
2023-05-08T18:21:35.366Z,17.56
2023-05-08T18:24:02.043Z,17.51
2023-05-08T18:26:28.485Z,17.35
2023-05-08T18:28:55.072Z,17.28
2023-05-08T18:31:21.648Z,17.26
2023-05-08T18:33:48.214Z,17.35
2023-05-08T18:36:14.750Z,17.45
2023-05-08T18:38:41.721Z,17.41
2023-05-08T18:41:08.397Z,17.37
2023-05-08T18:43:35.017Z,17.24
2023-05-08T18:46:12.400Z,17.14
2023-05-08T18:48:40.542Z,17.32
2023-05-08T18:51:07.039Z,17.34
2023-05-08T18:53:34.884Z,17.25
2023-05-08T18:56:04.080Z,17.21
2023-05-08T18:58:31.384Z,17.18
2023-05-08T19:00:59.111Z,17.17
2023-05-08T19:03:26.125Z,17.18
2023-05-08T19:05:55.009Z,17.08
2023-05-08T19:08:21.574Z,17.14
2023-05-08T19:10:48.121Z,17.01
2023-05-08T19:13:14.836Z,16.90
2023-05-08T19:15:41.554Z,16.77
2023-05-08T19:18:08.910Z,16.62
2023-05-08T19:20:35.589Z,16.54
2023-05-08T19:23:02.075Z,16.38
2023-05-08T19:25:28.585Z,16.30
2023-05-08T19:27:55.350Z,16.23
2023-05-08T19:30:22.081Z,16.16
2023-05-08T19:32:49.773Z,16.11
2023-05-08T19:35:16.367Z,16.16
2023-05-08T19:37:42.863Z,16.12
2023-05-08T19:40:10.332Z,16.01
2023-05-08T19:42:36.842Z,15.88
2023-05-08T19:45:03.952Z,15.84
2023-05-08T19:47:30.497Z,15.82
2023-05-08T19:49:57.016Z,15.82
2023-05-08T19:52:23.553Z,15.80
2023-05-08T19:54:50.058Z,15.73
2023-05-08T19:57:16.687Z,15.52
2023-05-08T19:59:43.142Z,15.27
2023-05-08T20:02:09.603Z,15.19
2023-05-08T20:04:51.875Z,15.03
2023-05-08T20:07:22.727Z,14.89
2023-05-08T20:09:49.211Z,15.08
2023-05-08T20:12:15.730Z,15.11
2023-05-08T20:14:42.185Z,15.10
2023-05-08T20:17:08.831Z,15.01
2023-05-08T20:19:35.541Z,14.94
2023-05-08T20:22:02.121Z,15.00
2023-05-08T20:24:28.702Z,15.00
2023-05-08T20:26:56.216Z,14.94
2023-05-08T20:29:24.143Z,14.87
2023-05-08T20:31:52.148Z,14.70
2023-05-08T20:34:21.760Z,14.71
2023-05-08T20:36:48.595Z,14.78
2023-05-08T20:39:15.208Z,14.80
2023-05-08T20:41:41.749Z,14.77
2023-05-08T20:44:08.250Z,14.71
2023-05-08T20:46:34.733Z,14.71
2023-05-08T20:49:03.684Z,14.73
2023-05-08T20:51:31.813Z,14.60
2023-05-08T20:53:58.440Z,14.55
2023-05-08T20:56:25.482Z,14.32
2023-05-08T20:58:51.962Z,14.17
2023-05-08T21:01:20.633Z,14.14
2023-05-08T21:03:48.026Z,14.13
2023-05-08T21:06:14.584Z,14.03
2023-05-08T21:08:41.225Z,13.95
2023-05-08T21:11:07.733Z,13.86
2023-05-08T21:13:34.239Z,13.87
2023-05-08T21:16:00.819Z,13.79
2023-05-08T21:18:27.375Z,13.74
2023-05-08T21:20:53.950Z,13.77
2023-05-08T21:23:20.865Z,13.85
2023-05-08T21:25:49.425Z,13.73
2023-05-08T21:28:17.070Z,13.74
2023-05-08T21:30:45.871Z,13.73
2023-05-08T21:33:13.895Z,13.79
2023-05-08T21:35:41.779Z,13.89
2023-05-08T21:38:09.147Z,13.94
2023-05-08T21:40:35.706Z,13.86
2023-05-08T21:43:02.212Z,13.87
2023-05-08T21:45:32.752Z,13.71
2023-05-08T21:48:00.442Z,13.63
2023-05-08T21:50:30.046Z,13.57
2023-05-08T21:52:56.621Z,13.52
2023-05-08T21:55:23.866Z,13.43
2023-05-08T21:57:50.853Z,13.44
2023-05-08T22:00:18.000Z,13.50
2023-05-08T22:02:44.591Z,13.46
2023-05-08T22:05:11.406Z,13.44
2023-05-08T22:07:38.099Z,13.42
2023-05-08T22:10:05.552Z,13.51
2023-05-08T22:12:32.005Z,13.55
2023-05-08T22:14:58.486Z,13.51
2023-05-08T22:17:25.074Z,13.52
2023-05-08T22:19:51.599Z,13.54
2023-05-08T22:22:18.061Z,13.49
2023-05-08T22:24:44.569Z,13.51
2023-05-08T22:27:11.132Z,13.55
2023-05-08T22:29:37.642Z,13.62
2023-05-08T22:32:04.606Z,13.70
2023-05-08T22:34:31.428Z,13.67
2023-05-08T22:37:00.117Z,13.57
2023-05-08T22:39:26.549Z,13.66
2023-05-08T22:41:54.309Z,13.76
2023-05-08T22:44:21.050Z,13.78
2023-05-08T22:46:47.826Z,13.80
2023-05-08T22:49:14.491Z,13.89
2023-05-08T22:51:41.299Z,13.85
2023-05-08T22:54:08.017Z,13.90
2023-05-08T22:56:35.586Z,13.89
2023-05-08T22:59:02.064Z,13.99
2023-05-08T23:01:28.575Z,14.04
2023-05-08T23:03:58.774Z,14.02
2023-05-08T23:06:25.262Z,14.01
2023-05-08T23:08:51.752Z,13.96
2023-05-08T23:11:18.211Z,13.98
2023-05-08T23:13:44.678Z,13.95
2023-05-08T23:16:11.218Z,13.99
2023-05-08T23:18:37.761Z,13.95
2023-05-08T23:21:06.355Z,14.02
2023-05-08T23:23:33.922Z,14.05
2023-05-08T23:26:04.451Z,14.06
2023-05-08T23:28:33.297Z,14.06
2023-05-08T23:31:00.446Z,13.94
2023-05-08T23:33:27.050Z,13.99
2023-05-08T23:35:58.545Z,13.90
2023-05-08T23:38:25.710Z,13.93
2023-05-08T23:40:52.297Z,13.92
2023-05-08T23:43:18.914Z,13.85
2023-05-08T23:45:45.594Z,13.71
2023-05-08T23:48:12.115Z,13.62
2023-05-08T23:50:38.867Z,13.51
2023-05-08T23:53:05.401Z,13.55
2023-05-08T23:55:31.897Z,13.53
2023-05-08T23:57:58.336Z,13.58
